createdAt,value
2023-04-09T00:00:10.406Z,99.90
2023-04-09T00:02:42.265Z,99.90
2023-04-09T00:05:11.286Z,99.90
2023-04-09T00:07:40.177Z,99.90
2023-04-09T00:10:10.410Z,99.90
2023-04-09T00:12:39.279Z,99.90
2023-04-09T00:15:15.086Z,99.90
2023-04-09T00:17:49.845Z,99.90
2023-04-09T00:20:19.079Z,99.90
2023-04-09T00:22:48.693Z,99.90
2023-04-09T00:25:17.637Z,99.90
2023-04-09T00:27:46.498Z,99.90
2023-04-09T00:30:17.011Z,99.90
2023-04-09T00:32:46.304Z,99.90
2023-04-09T00:35:16.320Z,99.90
2023-04-09T00:37:45.421Z,99.90
2023-04-09T00:40:14.649Z,99.90
2023-04-09T00:42:43.603Z,99.90
2023-04-09T00:45:12.632Z,99.90
2023-04-09T00:47:45.544Z,99.90
2023-04-09T00:50:14.646Z,99.90
2023-04-09T00:52:43.915Z,99.90
2023-04-09T00:55:14.747Z,99.90
2023-04-09T00:57:44.830Z,99.90
2023-04-09T01:00:14.967Z,99.90
2023-04-09T01:02:46.102Z,99.90
2023-04-09T01:05:16.366Z,99.90
2023-04-09T01:08:07.184Z,99.90
2023-04-09T01:10:40.485Z,99.90
2023-04-09T01:13:13.063Z,99.90
2023-04-09T01:15:50.426Z,99.90
2023-04-09T01:18:27.175Z,99.90
2023-04-09T01:21:00.470Z,99.90
2023-04-09T01:23:38.594Z,99.90
2023-04-09T01:26:19.480Z,99.90
2023-04-09T01:28:58.781Z,99.90
2023-04-09T01:31:33.061Z,99.90
2023-04-09T01:34:03.680Z,99.90
2023-04-09T01:36:34.511Z,99.90
2023-04-09T01:39:04.093Z,99.90
2023-04-09T01:41:35.372Z,99.90
2023-04-09T01:44:06.939Z,99.90
2023-04-09T01:46:36.706Z,99.90
2023-04-09T01:49:06.210Z,99.90
2023-04-09T01:51:35.454Z,99.90
2023-04-09T01:54:05.481Z,99.90
2023-04-09T01:56:42.613Z,99.90
2023-04-09T01:59:13.786Z,99.90
2023-04-09T02:01:47.392Z,99.90
2023-04-09T02:04:23.949Z,99.90
2023-04-09T02:06:59.943Z,99.90
2023-04-09T02:09:32.835Z,99.90
2023-04-09T02:12:06.089Z,99.90
2023-04-09T02:14:38.770Z,99.90
2023-04-09T02:17:07.981Z,99.90
2023-04-09T02:19:40.971Z,99.90
2023-04-09T02:22:10.799Z,99.90
2023-04-09T02:24:40.520Z,99.90
2023-04-09T02:27:09.592Z,99.90
2023-04-09T02:29:41.789Z,99.90
2023-04-09T02:32:10.897Z,99.90
2023-04-09T02:34:39.823Z,99.90
2023-04-09T02:37:09.121Z,99.90
2023-04-09T02:39:37.985Z,99.90
2023-04-09T02:42:08.010Z,99.90
2023-04-09T02:44:37.051Z,99.90
2023-04-09T02:47:08.036Z,99.90
2023-04-09T02:49:39.309Z,99.90
2023-04-09T02:52:08.558Z,99.90
2023-04-09T02:54:37.434Z,99.90
2023-04-09T02:57:06.498Z,99.90
2023-04-09T02:59:36.117Z,99.90
2023-04-09T03:02:05.400Z,99.90
2023-04-09T03:04:36.927Z,99.90
2023-04-09T03:07:05.950Z,99.90
2023-04-09T03:09:34.982Z,99.90
2023-04-09T03:12:03.934Z,99.90
2023-04-09T03:14:35.795Z,99.90
2023-04-09T03:17:04.651Z,99.90
2023-04-09T03:19:33.875Z,99.90
2023-04-09T03:22:04.861Z,99.90
2023-04-09T03:24:34.056Z,99.90
2023-04-09T03:27:06.224Z,99.90
2023-04-09T03:29:36.084Z,99.90
2023-04-09T03:32:05.263Z,99.90
2023-04-09T03:34:34.451Z,99.90
2023-04-09T03:37:05.011Z,99.90
2023-04-09T03:39:34.407Z,99.90
2023-04-09T03:42:03.491Z,99.90
2023-04-09T03:44:42.954Z,99.90
2023-04-09T03:47:16.006Z,99.90
2023-04-09T03:49:45.222Z,99.90
2023-04-09T03:52:28.675Z,99.90
2023-04-09T03:55:05.630Z,99.90
2023-04-09T03:57:34.859Z,99.90
2023-04-09T04:00:05.029Z,99.90
2023-04-09T04:02:52.844Z,99.90
2023-04-09T04:05:41.971Z,99.90
2023-04-09T04:08:16.387Z,99.90
2023-04-09T04:10:45.632Z,99.90
2023-04-09T04:13:17.094Z,99.90
2023-04-09T04:15:52.369Z,99.90
2023-04-09T04:18:23.965Z,99.90
2023-04-09T04:20:55.075Z,99.90
2023-04-09T04:23:25.307Z,99.90
2023-04-09T04:26:10.191Z,99.90
2023-04-09T04:28:40.147Z,99.90
2023-04-09T04:31:13.610Z,99.90
2023-04-09T04:33:44.039Z,99.90
2023-04-09T04:36:16.434Z,99.90
2023-04-09T04:38:51.086Z,99.90
2023-04-09T04:41:32.403Z,99.90
2023-04-09T04:44:10.599Z,99.90
2023-04-09T04:46:39.651Z,99.90
2023-04-09T04:49:08.691Z,99.90
2023-04-09T04:51:44.552Z,99.90
2023-04-09T04:54:17.766Z,99.90
2023-04-09T04:56:58.851Z,99.90
2023-04-09T04:59:38.847Z,99.90
2023-04-09T05:02:09.559Z,99.90
2023-04-09T05:04:48.768Z,99.90
2023-04-09T05:07:20.100Z,99.90
2023-04-09T05:09:56.982Z,99.90
2023-04-09T05:12:26.084Z,99.90
2023-04-09T05:14:56.241Z,99.90
2023-04-09T05:17:26.367Z,99.90
2023-04-09T05:19:55.477Z,99.90
2023-04-09T05:22:31.880Z,99.90
2023-04-09T05:25:02.476Z,99.90
2023-04-09T05:27:32.942Z,99.90
2023-04-09T05:30:03.750Z,99.90
2023-04-09T05:32:33.219Z,99.90
2023-04-09T05:35:02.436Z,99.90
2023-04-09T05:37:33.691Z,99.90
2023-04-09T05:40:04.436Z,99.90
2023-04-09T05:42:33.264Z,99.90
2023-04-09T05:45:10.678Z,99.90
2023-04-09T05:47:42.661Z,99.90
2023-04-09T05:50:18.206Z,99.90
2023-04-09T05:52:47.616Z,99.90
2023-04-09T05:55:19.684Z,99.90
2023-04-09T05:57:57.340Z,99.90
2023-04-09T06:00:26.356Z,99.90
2023-04-09T06:02:55.303Z,99.90
2023-04-09T06:05:24.234Z,99.90
2023-04-09T06:07:53.604Z,99.90
2023-04-09T06:10:23.970Z,99.90
2023-04-09T06:12:52.778Z,99.90
2023-04-09T06:15:21.839Z,99.90
2023-04-09T06:17:50.765Z,99.90
2023-04-09T06:20:20.050Z,99.90
2023-04-09T06:22:49.600Z,99.90
2023-04-09T06:25:18.535Z,99.90
2023-04-09T06:27:48.967Z,99.90
2023-04-09T06:30:17.869Z,99.90
2023-04-09T06:32:54.319Z,99.90
2023-04-09T06:35:25.283Z,99.90
2023-04-09T06:37:54.079Z,99.90
2023-04-09T06:40:23.644Z,99.90
2023-04-09T06:42:54.025Z,99.90
2023-04-09T06:45:29.165Z,99.90
2023-04-09T06:47:58.197Z,99.90
2023-04-09T06:50:27.342Z,99.90
2023-04-09T06:52:56.732Z,99.90
2023-04-09T06:55:26.925Z,99.90
2023-04-09T06:57:57.229Z,99.90
2023-04-09T07:00:26.364Z,99.90
2023-04-09T07:02:55.844Z,99.90
2023-04-09T07:05:25.359Z,99.90
2023-04-09T07:07:54.398Z,99.90
2023-04-09T07:10:23.287Z,99.90
2023-04-09T07:12:52.439Z,99.90
2023-04-09T07:15:23.255Z,99.90
2023-04-09T07:17:52.281Z,99.90
2023-04-09T07:20:21.265Z,99.90
2023-04-09T07:22:50.266Z,99.90
2023-04-09T07:25:19.375Z,99.90
2023-04-09T07:27:48.545Z,99.90
2023-04-09T07:30:19.861Z,99.90
2023-04-09T07:32:50.725Z,99.90
2023-04-09T07:35:19.987Z,99.90
2023-04-09T07:37:49.041Z,99.90
2023-04-09T07:40:17.976Z,99.90
2023-04-09T07:42:47.128Z,99.90
2023-04-09T07:45:17.133Z,99.90
2023-04-09T07:47:46.199Z,99.90
2023-04-09T07:50:16.406Z,99.90
2023-04-09T07:52:45.716Z,99.90
2023-04-09T07:55:15.452Z,99.90
2023-04-09T07:57:46.008Z,99.90
2023-04-09T08:00:15.967Z,99.90
2023-04-09T08:02:45.781Z,99.90
2023-04-09T08:05:16.420Z,99.90
2023-04-09T08:07:45.312Z,99.90
2023-04-09T08:10:16.414Z,99.90
2023-04-09T08:12:46.035Z,99.90
2023-04-09T08:15:14.773Z,99.90
2023-04-09T08:17:43.565Z,99.90
2023-04-09T08:20:13.585Z,99.90
2023-04-09T08:22:43.952Z,99.90
2023-04-09T08:25:12.903Z,99.90
2023-04-09T08:27:41.799Z,99.90
2023-04-09T08:30:11.903Z,99.90
2023-04-09T08:32:40.828Z,99.90
2023-04-09T08:35:10.624Z,99.90
2023-04-09T08:37:39.757Z,99.90
2023-04-09T08:40:11.715Z,99.90
2023-04-09T08:42:45.938Z,99.90
2023-04-09T08:45:15.039Z,99.90
2023-04-09T08:47:44.884Z,99.90
2023-04-09T08:50:14.556Z,99.90
2023-04-09T08:52:44.076Z,99.90
2023-04-09T08:55:14.385Z,99.90
2023-04-09T08:57:43.331Z,99.90
2023-04-09T09:00:13.536Z,99.90
2023-04-09T09:03:04.021Z,99.90
2023-04-09T09:05:39.655Z,99.90
2023-04-09T09:08:10.313Z,99.90
2023-04-09T09:10:42.044Z,99.90
2023-04-09T09:13:22.671Z,99.90
2023-04-09T09:15:55.276Z,99.90
2023-04-09T09:18:39.666Z,99.90
2023-04-09T09:21:12.865Z,99.90
2023-04-09T09:23:42.944Z,99.90
2023-04-09T09:26:18.325Z,99.90
2023-04-09T09:28:48.301Z,99.90
2023-04-09T09:31:18.216Z,99.90
2023-04-09T09:33:48.389Z,99.90
2023-04-09T09:36:17.610Z,99.90
2023-04-09T09:38:55.015Z,99.90
2023-04-09T09:41:26.277Z,99.90
2023-04-09T09:43:55.359Z,99.90
2023-04-09T09:46:26.447Z,99.90
2023-04-09T09:48:56.009Z,99.90
2023-04-09T09:51:28.884Z,99.90
2023-04-09T09:53:58.575Z,99.90
2023-04-09T09:56:33.535Z,99.90
2023-04-09T09:59:08.550Z,99.90
2023-04-09T10:01:37.874Z,99.90
2023-04-09T10:04:08.786Z,99.90
2023-04-09T10:06:38.821Z,99.90
2023-04-09T10:09:08.288Z,99.90
2023-04-09T10:11:39.475Z,99.90
2023-04-09T10:14:08.624Z,99.90
2023-04-09T10:16:37.737Z,99.90
2023-04-09T10:19:08.186Z,99.90
2023-04-09T10:21:42.829Z,99.90
2023-04-09T10:24:12.914Z,99.90
2023-04-09T10:26:45.125Z,99.90
2023-04-09T10:29:15.738Z,99.90
2023-04-09T10:31:54.127Z,99.90
2023-04-09T10:34:24.769Z,99.90
2023-04-09T10:36:56.602Z,99.90
2023-04-09T10:39:29.781Z,99.90
2023-04-09T10:42:02.413Z,99.90
2023-04-09T10:44:32.600Z,99.90
2023-04-09T10:47:01.525Z,99.90
2023-04-09T10:49:37.719Z,99.90
2023-04-09T10:52:14.794Z,99.90
2023-04-09T10:54:48.256Z,99.90
2023-04-09T10:57:21.663Z,99.90
2023-04-09T10:59:55.267Z,99.90
2023-04-09T11:02:51.576Z,99.90
2023-04-09T11:05:26.444Z,99.90
2023-04-09T11:07:59.886Z,99.90
2023-04-09T11:10:31.599Z,99.90
2023-04-09T11:13:03.956Z,99.90
2023-04-09T11:15:33.664Z,99.90
2023-04-09T11:18:02.986Z,99.90
2023-04-09T11:20:32.268Z,99.90
2023-04-09T11:23:01.727Z,99.90
2023-04-09T11:25:33.378Z,99.90
2023-04-09T11:28:05.167Z,99.90
2023-04-09T11:30:35.856Z,99.90
2023-04-09T11:33:04.958Z,99.90
2023-04-09T11:35:37.114Z,99.90
2023-04-09T11:38:09.919Z,99.90
2023-04-09T11:40:45.565Z,99.90
2023-04-09T11:43:17.061Z,99.90
2023-04-09T11:45:48.538Z,99.90
2023-04-09T11:48:19.236Z,99.90
2023-04-09T11:50:48.813Z,99.90
2023-04-09T11:53:19.051Z,99.90
2023-04-09T11:55:50.765Z,99.90
2023-04-09T11:58:23.878Z,99.90
2023-04-09T12:00:55.517Z,99.90
2023-04-09T12:03:34.012Z,99.90
2023-04-09T12:06:04.285Z,99.90
2023-04-09T12:08:36.339Z,99.90
2023-04-09T12:11:12.888Z,99.90
2023-04-09T12:13:44.643Z,99.90
2023-04-09T12:16:14.306Z,99.90
2023-04-09T12:18:44.496Z,99.90
2023-04-09T12:21:13.843Z,99.90
2023-04-09T12:23:42.677Z,99.90
2023-04-09T12:26:12.504Z,99.90
2023-04-09T12:28:42.739Z,99.90
2023-04-09T12:31:12.030Z,99.90
2023-04-09T12:33:41.148Z,99.90
2023-04-09T12:36:10.338Z,99.90
2023-04-09T12:38:39.169Z,99.90
2023-04-09T12:41:08.508Z,99.90
2023-04-09T12:43:37.380Z,99.90
2023-04-09T12:46:08.292Z,99.80
2023-04-09T12:48:37.732Z,99.30
2023-04-09T12:51:07.515Z,98.90
2023-04-09T12:53:36.457Z,99.50
2023-04-09T12:56:06.339Z,99.30
2023-04-09T12:58:35.375Z,98.50
2023-04-09T13:01:05.059Z,99.20
2023-04-09T13:03:35.878Z,96.60
2023-04-09T13:06:05.437Z,97.90
2023-04-09T13:08:34.453Z,97.80
2023-04-09T13:11:04.483Z,96.40
2023-04-09T13:13:33.690Z,96.40
2023-04-09T13:16:02.547Z,96.30
2023-04-09T13:18:31.342Z,96.50
2023-04-09T13:21:01.653Z,96.10
2023-04-09T13:23:30.404Z,94.60
2023-04-09T13:26:00.494Z,94.60
2023-04-09T13:28:29.458Z,96.30
2023-04-09T13:30:58.438Z,97.30
2023-04-09T13:33:29.895Z,97.30
2023-04-09T13:35:59.514Z,97.30
2023-04-09T13:38:29.800Z,97.60
2023-04-09T13:40:58.633Z,97.10
2023-04-09T13:43:31.451Z,96.80
2023-04-09T13:46:00.308Z,95.10
2023-04-09T13:48:29.231Z,97.00
2023-04-09T13:50:58.456Z,96.60
2023-04-09T13:53:27.227Z,96.70
2023-04-09T13:55:57.603Z,96.70
2023-04-09T13:58:26.494Z,96.50
2023-04-09T14:00:55.551Z,96.20
2023-04-09T14:03:24.430Z,95.90
2023-04-09T14:05:53.316Z,95.50
2023-04-09T14:08:22.130Z,95.30
2023-04-09T14:10:51.485Z,94.80
2023-04-09T14:13:22.239Z,93.80
2023-04-09T14:15:51.178Z,94.00
2023-04-09T14:18:20.057Z,94.40
2023-04-09T14:20:49.027Z,93.60
2023-04-09T14:23:17.891Z,93.80
2023-04-09T14:25:46.815Z,93.50
2023-04-09T14:28:15.662Z,92.60
2023-04-09T14:30:46.402Z,92.70
2023-04-09T14:33:15.413Z,92.50
2023-04-09T14:35:44.532Z,92.50
2023-04-09T14:38:13.591Z,92.60
2023-04-09T14:40:42.442Z,92.40
2023-04-09T14:43:12.389Z,92.00
2023-04-09T14:45:41.513Z,91.80
2023-04-09T14:48:14.078Z,91.80
2023-04-09T14:50:45.325Z,92.00
2023-04-09T14:53:14.532Z,92.10
2023-04-09T14:55:43.525Z,92.30
2023-04-09T14:58:12.417Z,92.00
2023-04-09T15:00:41.330Z,92.30
2023-04-09T15:03:12.151Z,92.30
2023-04-09T15:05:41.559Z,92.10
2023-04-09T15:08:10.456Z,90.80
2023-04-09T15:10:40.021Z,90.20
2023-04-09T15:13:09.182Z,90.40
2023-04-09T15:15:41.203Z,90.60
2023-04-09T15:18:11.476Z,90.60
2023-04-09T15:20:41.691Z,90.10
2023-04-09T15:23:10.821Z,89.60
2023-04-09T15:25:39.833Z,89.30
2023-04-09T15:28:09.465Z,89.10
2023-04-09T15:30:38.850Z,89.00
2023-04-09T15:33:07.656Z,90.10
2023-04-09T15:35:37.952Z,89.60
2023-04-09T15:38:06.903Z,90.00
2023-04-09T15:40:35.848Z,90.10
2023-04-09T15:43:04.759Z,91.20
2023-04-09T15:45:33.855Z,91.30
2023-04-09T15:48:02.756Z,91.70
2023-04-09T15:50:31.855Z,91.90
2023-04-09T15:53:02.122Z,92.40
2023-04-09T15:55:34.057Z,92.20
2023-04-09T15:58:03.082Z,91.70
2023-04-09T16:00:32.421Z,90.90
2023-04-09T16:03:01.466Z,91.70
2023-04-09T16:05:32.065Z,91.60
2023-04-09T16:08:02.770Z,91.40
2023-04-09T16:10:32.475Z,91.10
2023-04-09T16:13:01.754Z,91.50
2023-04-09T16:15:31.103Z,91.20
2023-04-09T16:18:00.284Z,91.30
2023-04-09T16:20:29.737Z,91.80
2023-04-09T16:22:58.720Z,92.00
2023-04-09T16:25:29.373Z,92.20
2023-04-09T16:27:58.141Z,92.50
2023-04-09T16:30:27.323Z,93.00
2023-04-09T16:32:56.885Z,93.20
2023-04-09T16:35:25.832Z,92.20
2023-04-09T16:37:54.659Z,92.20
2023-04-09T16:40:24.520Z,92.40
2023-04-09T16:42:54.915Z,92.30
2023-04-09T16:45:24.091Z,92.70
2023-04-09T16:47:55.905Z,93.10
2023-04-09T16:50:27.565Z,93.30
2023-04-09T16:52:56.372Z,93.60
2023-04-09T16:55:25.375Z,93.90
2023-04-09T16:57:56.857Z,93.90
2023-04-09T17:00:25.872Z,94.20
2023-04-09T17:02:55.685Z,94.60
2023-04-09T17:05:25.891Z,94.90
2023-04-09T17:07:55.438Z,95.10
2023-04-09T17:10:24.515Z,95.20
2023-04-09T17:12:53.353Z,95.10
2023-04-09T17:15:25.132Z,95.30
2023-04-09T17:17:54.170Z,95.30
2023-04-09T17:20:25.022Z,95.40
2023-04-09T17:22:53.940Z,95.80
2023-04-09T17:25:23.034Z,96.10
2023-04-09T17:27:51.854Z,96.10
2023-04-09T17:30:21.518Z,96.40
2023-04-09T17:32:52.802Z,97.00
2023-04-09T17:35:21.951Z,97.10
2023-04-09T17:37:50.977Z,96.90
2023-04-09T17:40:20.202Z,97.20
2023-04-09T17:42:49.291Z,97.30
2023-04-09T17:45:18.191Z,97.30
2023-04-09T17:47:47.170Z,98.00
2023-04-09T17:50:18.779Z,98.40
2023-04-09T17:52:48.138Z,98.50
2023-04-09T17:55:17.461Z,98.60
2023-04-09T17:57:46.318Z,98.80
2023-04-09T18:00:16.112Z,99.10
2023-04-09T18:02:47.965Z,99.50
2023-04-09T18:05:18.601Z,99.90
2023-04-09T18:07:47.574Z,99.90
2023-04-09T18:10:16.461Z,99.90
2023-04-09T18:12:45.820Z,99.90
2023-04-09T18:15:15.281Z,99.90
2023-04-09T18:17:44.023Z,99.90
2023-04-09T18:20:15.477Z,99.90
2023-04-09T18:22:46.312Z,99.90
2023-04-09T18:25:15.795Z,99.90
2023-04-09T18:27:44.682Z,99.90
2023-04-09T18:30:13.882Z,99.90
2023-04-09T18:32:43.520Z,99.90
2023-04-09T18:35:12.588Z,99.90
2023-04-09T18:37:42.845Z,99.90
2023-04-09T18:40:15.702Z,99.90
2023-04-09T18:42:44.881Z,99.90
2023-04-09T18:45:13.843Z,99.90
2023-04-09T18:47:42.753Z,99.90
2023-04-09T18:50:15.094Z,99.90
2023-04-09T18:52:43.907Z,99.90
2023-04-09T18:55:14.825Z,99.90
2023-04-09T18:57:44.874Z,99.90
2023-04-09T19:00:14.750Z,99.90
2023-04-09T19:02:43.935Z,99.90
2023-04-09T19:05:13.298Z,99.90
2023-04-09T19:07:42.217Z,99.90
2023-04-09T19:10:14.082Z,99.90
2023-04-09T19:12:48.443Z,99.90
2023-04-09T19:15:17.792Z,99.90
2023-04-09T19:17:47.441Z,99.90
2023-04-09T19:20:16.740Z,99.90
2023-04-09T19:22:47.995Z,99.90
2023-04-09T19:25:18.910Z,99.90
2023-04-09T19:27:48.008Z,99.90
2023-04-09T19:30:17.002Z,99.90
2023-04-09T19:32:46.870Z,99.90
2023-04-09T19:35:15.696Z,99.90
2023-04-09T19:37:45.026Z,99.90
2023-04-09T19:40:15.618Z,99.90
2023-04-09T19:42:45.924Z,99.90
2023-04-09T19:45:17.822Z,99.90
2023-04-09T19:47:46.725Z,99.90
2023-04-09T19:50:15.937Z,99.90
2023-04-09T19:52:44.859Z,99.90
2023-04-09T19:55:13.814Z,99.90
2023-04-09T19:57:43.889Z,99.90
2023-04-09T20:00:16.121Z,99.90
2023-04-09T20:02:46.373Z,99.90
2023-04-09T20:05:15.763Z,99.90
2023-04-09T20:07:45.109Z,99.90
2023-04-09T20:10:14.420Z,99.90
2023-04-09T20:12:43.396Z,99.90
2023-04-09T20:15:14.188Z,99.90
2023-04-09T20:17:43.108Z,99.90
2023-04-09T20:20:13.262Z,99.90
2023-04-09T20:22:43.408Z,99.90
2023-04-09T20:25:12.705Z,99.90
2023-04-09T20:27:41.648Z,99.90
2023-04-09T20:30:11.142Z,99.90
2023-04-09T20:32:41.956Z,99.90
2023-04-09T20:35:13.696Z,99.90
2023-04-09T20:37:42.588Z,99.90
2023-04-09T20:40:13.202Z,99.90
2023-04-09T20:42:42.488Z,99.90
2023-04-09T20:45:12.527Z,99.90
2023-04-09T20:47:42.799Z,99.90
2023-04-09T20:50:12.522Z,99.90
2023-04-09T20:52:41.952Z,99.90
2023-04-09T20:55:11.105Z,99.90
2023-04-09T20:57:40.007Z,99.90
2023-04-09T21:00:10.237Z,99.90
2023-04-09T21:02:40.543Z,99.90
2023-04-09T21:05:21.816Z,99.90
2023-04-09T21:07:52.527Z,99.90
2023-04-09T21:10:22.002Z,99.90
2023-04-09T21:12:50.938Z,99.90
2023-04-09T21:15:20.144Z,99.90
2023-04-09T21:17:49.121Z,99.90
2023-04-09T21:20:19.595Z,99.90
2023-04-09T21:22:49.049Z,99.90
2023-04-09T21:25:18.017Z,99.90
2023-04-09T21:27:46.868Z,99.90
2023-04-09T21:30:15.909Z,99.90
2023-04-09T21:32:44.953Z,99.90
2023-04-09T21:35:13.763Z,99.90
2023-04-09T21:37:44.086Z,99.90
2023-04-09T21:40:13.412Z,99.90
2023-04-09T21:42:42.392Z,99.90
2023-04-09T21:45:11.806Z,99.90
2023-04-09T21:47:40.838Z,99.90
2023-04-09T21:50:10.771Z,99.90
2023-04-09T21:52:42.920Z,99.90
2023-04-09T21:55:14.231Z,99.90
2023-04-09T21:57:55.499Z,99.90
2023-04-09T22:00:24.861Z,99.90
2023-04-09T22:03:01.666Z,99.90
2023-04-09T22:05:31.764Z,99.90
2023-04-09T22:08:01.025Z,99.90
2023-04-09T22:10:31.529Z,99.90
2023-04-09T22:13:00.537Z,99.90
2023-04-09T22:15:29.639Z,99.90
2023-04-09T22:17:58.928Z,99.90
2023-04-09T22:20:27.794Z,99.90
2023-04-09T22:22:57.128Z,99.90
2023-04-09T22:25:26.220Z,99.90
2023-04-09T22:27:56.598Z,99.90
2023-04-09T22:30:26.036Z,99.90
2023-04-09T22:32:54.953Z,99.90
2023-04-09T22:35:23.888Z,99.90
2023-04-09T22:37:52.932Z,99.90
2023-04-09T22:40:21.766Z,99.90
2023-04-09T22:42:51.077Z,99.90
2023-04-09T22:45:21.768Z,99.90
2023-04-09T22:47:50.902Z,99.90
2023-04-09T22:50:20.152Z,99.90
2023-04-09T22:52:51.555Z,99.90
2023-04-09T22:55:20.715Z,99.90
2023-04-09T22:57:49.747Z,99.90
2023-04-09T23:00:18.592Z,99.90
2023-04-09T23:02:50.954Z,99.90
2023-04-09T23:05:20.352Z,99.90
2023-04-09T23:07:49.497Z,99.90
2023-04-09T23:10:18.525Z,99.90
2023-04-09T23:12:47.267Z,99.90
2023-04-09T23:15:15.937Z,99.90
2023-04-09T23:17:45.126Z,99.90
2023-04-09T23:20:15.770Z,99.90
2023-04-09T23:22:47.125Z,99.90
2023-04-09T23:25:16.683Z,99.90
2023-04-09T23:27:46.681Z,99.90
2023-04-09T23:30:18.321Z,99.90
2023-04-09T23:32:47.837Z,99.90
2023-04-09T23:35:18.328Z,99.90
2023-04-09T23:37:48.856Z,99.90
2023-04-09T23:40:19.031Z,99.90
2023-04-09T23:42:49.251Z,99.90
2023-04-09T23:45:18.193Z,99.90
2023-04-09T23:47:47.818Z,99.90
2023-04-09T23:50:18.252Z,99.90
2023-04-09T23:52:49.145Z,99.90
2023-04-09T23:55:18.338Z,99.90
2023-04-09T23:57:47.407Z,99.90
